createdAt,value
2018-04-15T00:01:55.848Z,10.24
2018-04-15T00:04:23.436Z,10.20
2018-04-15T00:06:51.046Z,10.18
2018-04-15T00:09:18.613Z,10.17
2018-04-15T00:11:46.216Z,10.12
2018-04-15T00:14:13.943Z,10.10
2018-04-15T00:16:41.550Z,10.04
2018-04-15T00:19:09.125Z,10.06
2018-04-15T00:21:36.690Z,10.04
2018-04-15T00:24:04.256Z,10.04
2018-04-15T00:26:31.824Z,10.04
2018-04-15T00:28:59.402Z,10.01
2018-04-15T00:31:26.986Z,10.02
2018-04-15T00:33:54.591Z,10.00
2018-04-15T00:36:22.129Z,10.01
2018-04-15T00:38:49.690Z,9.93
2018-04-15T00:41:17.241Z,9.92
2018-04-15T00:43:44.819Z,9.96
2018-04-15T00:46:12.415Z,9.90
2018-04-15T00:48:40.042Z,9.95
2018-04-15T00:51:07.593Z,9.77
2018-04-15T00:53:46.937Z,9.75
2018-04-15T00:56:14.503Z,9.71
2018-04-15T00:58:42.049Z,9.76
2018-04-15T01:01:09.627Z,9.80
2018-04-15T01:03:37.216Z,9.79
2018-04-15T01:06:04.793Z,9.82
2018-04-15T01:08:32.360Z,9.81
2018-04-15T01:10:59.923Z,9.83
2018-04-15T01:13:27.597Z,9.84
2018-04-15T01:15:55.141Z,9.79
2018-04-15T01:18:22.759Z,9.77
2018-04-15T01:20:50.337Z,9.83
2018-04-15T01:23:17.888Z,9.78
2018-04-15T01:25:45.432Z,9.84
2018-04-15T01:28:13.004Z,9.82
2018-04-15T01:30:40.581Z,9.76
2018-04-15T01:33:08.145Z,9.76
2018-04-15T01:35:35.717Z,9.76
2018-04-15T01:38:03.289Z,9.77
2018-04-15T01:40:30.897Z,9.74
2018-04-15T01:42:58.462Z,9.77
2018-04-15T01:45:26.028Z,9.78
2018-04-15T01:47:53.712Z,9.77
2018-04-15T01:50:21.292Z,9.77
2018-04-15T01:52:48.878Z,9.78
2018-04-15T01:55:16.488Z,9.76
2018-04-15T01:57:44.104Z,9.79
2018-04-15T02:00:11.681Z,9.82
2018-04-15T02:02:39.242Z,9.87
2018-04-15T02:05:06.809Z,9.77
2018-04-15T02:07:34.370Z,9.81
2018-04-15T02:10:01.966Z,9.83
2018-04-15T02:12:29.529Z,9.82
2018-04-15T02:14:57.095Z,9.85
2018-04-15T02:17:24.666Z,9.82
2018-04-15T02:19:52.208Z,9.84
2018-04-15T02:22:19.768Z,9.83
2018-04-15T02:24:47.365Z,9.83
2018-04-15T02:27:14.918Z,9.83
2018-04-15T02:29:42.511Z,9.80
2018-04-15T02:32:10.097Z,9.84
2018-04-15T02:34:37.696Z,9.72
2018-04-15T02:37:05.259Z,9.79
2018-04-15T02:39:32.844Z,9.78
2018-04-15T02:42:00.436Z,9.78
2018-04-15T02:44:27.993Z,9.84
2018-04-15T02:46:55.561Z,9.83
2018-04-15T02:49:23.171Z,9.81
2018-04-15T02:51:50.774Z,9.82
2018-04-15T02:54:18.429Z,9.88
2018-04-15T02:56:46.013Z,9.82
2018-04-15T02:59:13.609Z,9.86
2018-04-15T03:01:41.173Z,9.80
2018-04-15T03:04:08.731Z,9.79
2018-04-15T03:06:36.290Z,9.80
2018-04-15T03:09:03.849Z,9.81
2018-04-15T03:11:31.434Z,9.83
2018-04-15T03:13:58.973Z,9.84
2018-04-15T03:16:26.580Z,9.86
2018-04-15T03:18:54.155Z,9.81
2018-04-15T03:21:21.817Z,9.86
2018-04-15T03:23:49.381Z,9.88
2018-04-15T03:26:16.954Z,9.91
2018-04-15T03:28:44.544Z,9.89
2018-04-15T03:31:12.158Z,9.87
2018-04-15T03:33:39.756Z,9.89
2018-04-15T03:36:07.405Z,9.86
2018-04-15T03:38:35.016Z,9.88
2018-04-15T03:41:02.581Z,9.85
2018-04-15T03:43:30.149Z,9.87
2018-04-15T03:45:57.690Z,9.85
2018-04-15T03:48:25.263Z,9.89
2018-04-15T03:50:52.838Z,9.89
2018-04-15T03:53:20.392Z,9.84
2018-04-15T03:55:47.973Z,9.83
2018-04-15T03:58:15.536Z,9.87
2018-04-15T04:00:43.121Z,9.91
2018-04-15T04:03:10.742Z,9.84
2018-04-15T04:05:38.374Z,9.80
2018-04-15T04:08:05.958Z,9.79
2018-04-15T04:10:33.542Z,9.79
2018-04-15T04:13:01.166Z,9.80
2018-04-15T04:15:28.927Z,9.81
2018-04-15T04:18:08.510Z,9.83
2018-04-15T04:20:47.704Z,9.85
2018-04-15T04:23:27.093Z,9.80
2018-04-15T04:26:05.535Z,9.79
2018-04-15T04:28:33.944Z,9.83
2018-04-15T04:31:01.494Z,9.77
2018-04-15T04:33:29.040Z,9.80
2018-04-15T04:35:56.688Z,9.78
2018-04-15T04:38:24.241Z,9.77
2018-04-15T04:40:51.781Z,9.80
2018-04-15T04:43:19.332Z,9.80
2018-04-15T04:45:46.903Z,9.80
2018-04-15T04:48:14.537Z,9.79
2018-04-15T04:50:42.197Z,9.79
2018-04-15T04:53:09.790Z,9.80
2018-04-15T04:55:37.439Z,9.81
2018-04-15T04:58:05.070Z,9.82
2018-04-15T05:00:32.652Z,9.83
2018-04-15T05:03:00.228Z,9.83
2018-04-15T05:05:27.819Z,9.82
2018-04-15T05:07:55.392Z,9.83
2018-04-15T05:10:22.951Z,9.83
2018-04-15T05:12:50.602Z,9.85
2018-04-15T05:15:18.248Z,9.85
2018-04-15T05:17:45.896Z,9.85
2018-04-15T05:20:13.538Z,9.85
2018-04-15T05:22:41.118Z,9.85
2018-04-15T05:25:09.154Z,9.88
2018-04-15T05:27:36.804Z,9.86
2018-04-15T05:33:02.495Z,9.95
2018-04-15T05:35:30.055Z,9.93
2018-04-15T05:37:57.677Z,9.90
2018-04-15T05:40:25.341Z,9.96
2018-04-15T05:42:53.136Z,10.00
2018-04-15T05:45:20.816Z,10.05
2018-04-15T05:47:48.501Z,10.04
2018-04-15T05:50:16.144Z,10.10
2018-04-15T05:52:43.771Z,10.11
2018-04-15T05:55:11.362Z,10.14
2018-04-15T05:57:38.948Z,10.17
2018-04-15T06:00:06.541Z,10.22
2018-04-15T06:02:34.129Z,10.26
2018-04-15T06:05:01.693Z,10.27
2018-04-15T06:07:29.264Z,10.29
2018-04-15T06:09:56.846Z,10.30
2018-04-15T06:12:24.512Z,10.31
2018-04-15T06:14:52.186Z,10.34
2018-04-15T06:17:19.772Z,10.37
2018-04-15T06:19:47.348Z,10.41
2018-04-15T06:22:14.927Z,10.41
2018-04-15T06:24:42.568Z,10.45
2018-04-15T06:27:10.187Z,10.44
2018-04-15T06:29:37.759Z,10.45
2018-04-15T06:32:05.429Z,10.51
2018-04-15T06:34:33.028Z,10.53
2018-04-15T06:37:00.566Z,10.62
2018-04-15T06:39:29.874Z,10.66
2018-04-15T06:41:57.648Z,10.59
2018-04-15T06:44:25.265Z,10.65
2018-04-15T06:46:52.839Z,10.68
2018-04-15T06:49:20.488Z,10.74
2018-04-15T06:51:48.060Z,10.74
2018-04-15T06:54:15.612Z,10.73
2018-04-15T06:56:43.164Z,10.77
2018-04-15T06:59:10.751Z,10.74
2018-04-15T07:01:38.421Z,10.83
2018-04-15T07:04:06.325Z,10.80
2018-04-15T07:06:34.026Z,10.79
2018-04-15T07:09:01.610Z,10.84
2018-04-15T07:11:29.201Z,10.91
2018-04-15T07:13:56.784Z,10.94
2018-04-15T07:16:24.366Z,10.99
2018-04-15T07:18:51.956Z,10.97
2018-04-15T07:21:19.552Z,11.03
2018-04-15T07:23:47.125Z,11.06
2018-04-15T07:26:14.680Z,11.05
2018-04-15T07:28:42.233Z,11.13
2018-04-15T07:31:09.800Z,11.16
2018-04-15T07:33:37.372Z,11.17
2018-04-15T07:36:04.986Z,11.12
2018-04-15T07:38:32.572Z,11.03
2018-04-15T07:41:00.222Z,11.12
2018-04-15T07:43:28.559Z,11.09
2018-04-15T07:45:56.150Z,11.15
2018-04-15T07:48:23.741Z,11.32
2018-04-15T07:50:51.344Z,11.40
2018-04-15T07:53:18.898Z,11.49
2018-04-15T07:55:46.442Z,11.57
2018-04-15T07:58:14.048Z,11.61
2018-04-15T08:00:41.680Z,11.69
2018-04-15T08:03:09.267Z,11.66
2018-04-15T08:05:36.885Z,11.65
2018-04-15T08:08:04.540Z,11.69
2018-04-15T08:10:32.092Z,11.69
2018-04-15T08:12:59.678Z,11.62
2018-04-15T08:15:27.456Z,11.62
2018-04-15T08:17:55.088Z,11.76
2018-04-15T08:20:22.966Z,11.80
2018-04-15T08:22:50.575Z,11.87
2018-04-15T08:25:18.141Z,11.83
2018-04-15T08:27:45.939Z,11.81
2018-04-15T08:30:13.528Z,11.74
2018-04-15T08:32:41.147Z,11.86
2018-04-15T08:35:08.760Z,11.97
2018-04-15T08:37:36.409Z,12.04
2018-04-15T08:40:04.052Z,11.87
2018-04-15T08:42:31.635Z,12.06
2018-04-15T08:44:59.294Z,12.13
2018-04-15T08:47:26.918Z,12.09
2018-04-15T08:49:54.478Z,12.12
2018-04-15T08:52:22.062Z,12.00
2018-04-15T08:54:49.650Z,12.06
2018-04-15T08:57:17.366Z,12.17
2018-04-15T08:59:44.993Z,12.28
2018-04-15T09:02:12.615Z,12.36
2018-04-15T09:04:40.220Z,12.26
2018-04-15T09:07:08.064Z,12.34
2018-04-15T09:09:35.838Z,12.51
2018-04-15T09:12:03.462Z,12.53
2018-04-15T09:14:31.021Z,12.56
2018-04-15T09:16:58.621Z,12.60
2018-04-15T09:19:26.235Z,12.63
2018-04-15T09:21:53.991Z,12.71
2018-04-15T09:24:21.601Z,12.70
2018-04-15T09:26:49.162Z,12.68
2018-04-15T09:29:16.787Z,12.68
2018-04-15T09:31:44.416Z,12.66
2018-04-15T09:34:11.995Z,12.78
2018-04-15T09:36:39.688Z,12.62
2018-04-15T09:39:07.300Z,12.82
2018-04-15T09:41:34.959Z,12.94
2018-04-15T09:44:02.727Z,12.87
2018-04-15T09:46:30.302Z,13.04
2018-04-15T09:48:57.873Z,13.14
2018-04-15T09:51:25.480Z,13.21
2018-04-15T09:53:53.064Z,13.03
2018-04-15T09:56:20.672Z,13.04
2018-04-15T09:58:48.260Z,13.19
2018-04-15T10:01:16.765Z,13.33
2018-04-15T10:03:44.322Z,13.34
2018-04-15T10:06:11.903Z,13.37
2018-04-15T10:08:39.469Z,13.59
2018-04-15T10:11:07.200Z,13.85
2018-04-15T10:13:35.177Z,13.96
2018-04-15T10:16:02.762Z,13.79
2018-04-15T10:18:30.318Z,13.94
2018-04-15T10:20:57.936Z,14.38
2018-04-15T10:23:25.515Z,14.21
2018-04-15T10:25:53.467Z,14.53
2018-04-15T10:28:21.059Z,14.36
2018-04-15T10:30:48.612Z,14.53
2018-04-15T10:33:16.204Z,14.68
2018-04-15T10:35:43.789Z,14.76
2018-04-15T10:38:11.664Z,14.59
2018-04-15T10:40:39.352Z,14.75
2018-04-15T10:43:06.933Z,14.67
2018-04-15T10:45:34.514Z,14.78
2018-04-15T10:48:02.095Z,15.22
2018-04-15T10:50:29.696Z,15.27
2018-04-15T10:52:57.288Z,15.11
2018-04-15T10:55:24.885Z,15.01
2018-04-15T10:57:52.583Z,15.28
2018-04-15T11:00:20.314Z,15.40
2018-04-15T11:02:47.946Z,16.01
2018-04-15T11:05:15.529Z,15.72
2018-04-15T11:07:43.088Z,15.98
2018-04-15T11:10:10.679Z,16.10
2018-04-15T11:12:38.375Z,15.69
2018-04-15T11:15:05.946Z,15.88
2018-04-15T11:17:33.535Z,15.93
2018-04-15T11:20:01.226Z,16.08
2018-04-15T11:22:28.802Z,16.15
2018-04-15T11:24:56.640Z,16.27
2018-04-15T11:27:24.333Z,15.87
2018-04-15T11:29:51.913Z,15.91
2018-04-15T11:32:19.612Z,16.15
2018-04-15T11:34:47.194Z,16.44
2018-04-15T11:37:14.817Z,16.36
2018-04-15T11:39:42.380Z,16.53
2018-04-15T11:42:09.933Z,16.07
2018-04-15T11:44:37.534Z,16.32
2018-04-15T11:47:05.122Z,16.27
2018-04-15T11:49:32.709Z,16.33
2018-04-15T11:52:00.614Z,16.39
2018-04-15T11:54:28.283Z,16.37
2018-04-15T11:56:55.876Z,16.72
2018-04-15T11:59:23.503Z,16.35
2018-04-15T12:01:51.111Z,16.53
2018-04-15T12:04:18.676Z,16.90
2018-04-15T12:06:46.237Z,17.01
2018-04-15T12:09:13.812Z,17.28
2018-04-15T12:11:41.380Z,17.01
2018-04-15T12:14:09.082Z,17.04
2018-04-15T12:16:36.665Z,16.99
2018-04-15T12:19:04.497Z,16.93
2018-04-15T12:21:32.273Z,16.97
2018-04-15T12:23:59.867Z,17.15
2018-04-15T12:26:27.449Z,17.30
2018-04-15T12:28:55.019Z,17.39
2018-04-15T12:31:22.588Z,17.18
2018-04-15T12:33:50.252Z,17.18
2018-04-15T12:36:17.830Z,17.09
2018-04-15T12:38:45.402Z,17.00
2018-04-15T12:41:12.969Z,16.99
2018-04-15T12:43:40.607Z,16.85
2018-04-15T12:46:08.268Z,16.96
2018-04-15T12:48:35.917Z,17.04
2018-04-15T12:51:03.577Z,16.99
2018-04-15T12:53:31.189Z,16.96
2018-04-15T12:55:58.800Z,17.11
2018-04-15T12:58:26.386Z,17.02
2018-04-15T13:00:54.134Z,16.70
2018-04-15T13:03:21.754Z,16.81
2018-04-15T13:05:49.361Z,17.02
2018-04-15T13:08:17.086Z,17.30
2018-04-15T13:10:44.715Z,17.50
2018-04-15T13:13:12.498Z,17.40
2018-04-15T13:15:40.374Z,17.29
2018-04-15T13:18:07.989Z,17.34
2018-04-15T13:20:35.898Z,17.34
2018-04-15T13:23:04.673Z,17.16
2018-04-15T13:25:32.297Z,17.07
2018-04-15T13:28:00.421Z,17.34
2018-04-15T13:30:28.227Z,17.48
2018-04-15T13:32:56.085Z,17.38
2018-04-15T13:35:23.735Z,17.51
2018-04-15T13:37:51.418Z,17.31
2018-04-15T13:40:19.005Z,17.51
2018-04-15T13:42:46.570Z,17.81
2018-04-15T13:45:14.149Z,17.53
2018-04-15T13:47:41.759Z,17.41
2018-04-15T13:50:09.336Z,17.60
2018-04-15T13:52:36.922Z,17.66
2018-04-15T13:55:04.878Z,17.62
2018-04-15T13:57:32.447Z,17.57
2018-04-15T14:00:00.128Z,17.75
2018-04-15T14:02:27.717Z,17.60
2018-04-15T14:04:55.379Z,17.58
2018-04-15T14:07:22.933Z,17.54
2018-04-15T14:09:50.971Z,17.71
2018-04-15T14:12:18.983Z,17.61
2018-04-15T14:14:46.588Z,17.73
2018-04-15T14:17:14.510Z,17.90
2018-04-15T14:19:42.084Z,17.89
2018-04-15T14:22:09.677Z,17.98
2018-04-15T14:24:37.286Z,17.97
2018-04-15T14:27:04.847Z,18.13
2018-04-15T14:29:32.399Z,17.99
2018-04-15T14:32:00.151Z,18.13
2018-04-15T14:34:27.770Z,18.24
2018-04-15T14:36:55.329Z,17.95
2018-04-15T14:39:23.060Z,18.13
2018-04-15T14:41:50.645Z,18.26
2018-04-15T14:44:18.214Z,18.32
2018-04-15T14:46:45.807Z,18.10
2018-04-15T14:49:13.361Z,18.21
2018-04-15T14:51:40.933Z,18.30
2018-04-15T14:54:08.522Z,18.34
2018-04-15T14:56:36.099Z,18.21
2018-04-15T14:59:03.747Z,18.03
2018-04-15T15:01:31.487Z,18.05
2018-04-15T15:03:59.267Z,18.14
2018-04-15T15:06:26.824Z,18.14
2018-04-15T15:08:54.444Z,18.05
2018-04-15T15:11:22.297Z,18.07
2018-04-15T15:13:49.904Z,18.09
2018-04-15T15:16:17.512Z,18.06
2018-04-15T15:18:45.276Z,18.02
2018-04-15T15:21:12.890Z,18.03
2018-04-15T15:23:40.570Z,18.00
2018-04-15T15:26:08.210Z,18.08
2018-04-15T15:28:35.771Z,18.06
2018-04-15T15:31:04.046Z,18.08
2018-04-15T15:33:31.610Z,18.16
2018-04-15T15:35:59.201Z,18.19
2018-04-15T15:38:26.785Z,18.12
2018-04-15T15:40:54.341Z,18.11
2018-04-15T15:43:21.930Z,18.16
2018-04-15T15:45:49.580Z,18.15
2018-04-15T15:48:17.242Z,18.12
2018-04-15T15:50:44.831Z,17.96
2018-04-15T15:53:12.465Z,18.00
2018-04-15T15:55:40.199Z,18.00
2018-04-15T15:58:07.813Z,17.99
2018-04-15T16:00:35.434Z,17.98
2018-04-15T16:03:02.987Z,17.97
2018-04-15T16:05:30.542Z,17.88
2018-04-15T16:07:58.094Z,17.94
2018-04-15T16:10:25.685Z,18.00
2018-04-15T16:12:53.281Z,17.95
2018-04-15T16:15:20.850Z,17.87
2018-04-15T16:17:48.530Z,17.88
2018-04-15T16:20:16.159Z,17.91
2018-04-15T16:22:43.813Z,17.95
2018-04-15T16:25:11.523Z,17.91
2018-04-15T16:27:39.260Z,18.06
2018-04-15T16:30:07.036Z,18.03
2018-04-15T16:32:34.616Z,18.03
2018-04-15T16:35:02.166Z,18.02
2018-04-15T16:37:29.825Z,17.99
2018-04-15T16:39:58.141Z,17.94
2018-04-15T16:42:25.988Z,17.92
2018-04-15T16:44:53.572Z,17.96
2018-04-15T16:47:21.130Z,17.99
2018-04-15T16:49:48.705Z,17.91
2018-04-15T16:52:16.305Z,17.88
2018-04-15T16:54:43.969Z,17.87
2018-04-15T16:57:11.579Z,17.80
2018-04-15T16:59:39.146Z,17.73
2018-04-15T17:02:06.753Z,17.72
2018-04-15T17:04:34.325Z,17.73
2018-04-15T17:07:01.989Z,17.65
2018-04-15T17:09:29.556Z,17.65
2018-04-15T17:11:57.154Z,17.51
2018-04-15T17:14:24.814Z,17.47
2018-04-15T17:16:52.524Z,17.52
2018-04-15T17:19:20.552Z,17.44
2018-04-15T17:21:48.118Z,17.46
2018-04-15T17:24:15.679Z,17.41
2018-04-15T17:26:43.495Z,17.38
2018-04-15T17:29:11.509Z,17.38
2018-04-15T17:31:39.089Z,17.36
2018-04-15T17:34:06.662Z,17.24
2018-04-15T17:36:34.282Z,17.26
2018-04-15T17:39:01.887Z,17.19
2018-04-15T17:41:29.605Z,17.16
2018-04-15T17:43:57.175Z,17.16
2018-04-15T17:46:24.990Z,17.10
2018-04-15T17:48:52.863Z,17.04
2018-04-15T17:51:20.824Z,17.02
2018-04-15T17:53:48.373Z,16.99
2018-04-15T17:56:16.395Z,16.97
2018-04-15T17:58:44.021Z,16.93
2018-04-15T18:01:14.913Z,16.87
2018-04-15T18:03:42.729Z,16.81
2018-04-15T18:06:10.523Z,16.79
2018-04-15T18:08:38.147Z,16.76
2018-04-15T18:11:05.987Z,16.68
2018-04-15T18:13:33.620Z,16.64
2018-04-15T18:16:01.220Z,16.60
2018-04-15T18:18:28.938Z,16.54
2018-04-15T18:20:56.943Z,16.51
2018-04-15T18:23:24.591Z,16.51
2018-04-15T18:25:52.214Z,16.43
2018-04-15T18:28:20.102Z,16.41
2018-04-15T18:30:47.696Z,16.39
2018-04-15T18:33:15.281Z,16.29
2018-04-15T18:35:42.879Z,16.25
2018-04-15T18:38:10.537Z,16.24
2018-04-15T18:40:38.113Z,16.15
2018-04-15T18:43:05.765Z,16.11
2018-04-15T18:45:33.379Z,16.10
2018-04-15T18:48:02.851Z,16.00
2018-04-15T18:50:30.437Z,16.02
2018-04-15T18:52:58.012Z,15.98
2018-04-15T18:55:25.812Z,15.90
2018-04-15T18:57:53.596Z,15.88
2018-04-15T19:00:21.139Z,15.86
2018-04-15T19:02:50.111Z,15.78
2018-04-15T19:05:18.085Z,15.80
2018-04-15T19:07:45.671Z,15.77
2018-04-15T19:10:13.301Z,15.71
2018-04-15T19:12:40.865Z,15.65
2018-04-15T19:15:08.427Z,15.56
2018-04-15T19:17:36.236Z,15.47
2018-04-15T19:20:04.057Z,15.46
2018-04-15T19:22:31.604Z,15.41
2018-04-15T19:24:59.174Z,15.26
2018-04-15T19:27:26.752Z,15.27
2018-04-15T19:29:54.342Z,15.21
2018-04-15T19:32:22.305Z,15.13
2018-04-15T19:34:51.105Z,15.05
2018-04-15T19:37:18.815Z,14.97
2018-04-15T19:39:46.740Z,14.90
2018-04-15T19:42:14.902Z,14.89
2018-04-15T19:44:42.509Z,14.81
2018-04-15T19:47:10.069Z,14.74
2018-04-15T19:49:37.635Z,14.74
2018-04-15T19:52:05.215Z,14.71
2018-04-15T19:54:32.849Z,14.62
2018-04-15T19:57:00.399Z,14.64
2018-04-15T19:59:28.035Z,14.58
2018-04-15T20:01:55.643Z,14.57
2018-04-15T20:04:23.216Z,14.58
2018-04-15T20:06:50.785Z,14.55
2018-04-15T20:09:18.373Z,14.48
2018-04-15T20:11:46.103Z,14.48
2018-04-15T20:14:13.712Z,14.41
2018-04-15T20:16:41.422Z,14.38
2018-04-15T20:19:09.026Z,14.36
2018-04-15T20:21:36.683Z,14.35
2018-04-15T20:24:05.255Z,14.37
2018-04-15T20:26:32.827Z,14.35
2018-04-15T20:29:00.413Z,14.35
2018-04-15T20:31:28.042Z,14.40
2018-04-15T20:33:55.606Z,14.45
2018-04-15T20:36:23.163Z,14.32
2018-04-15T20:38:50.780Z,14.36
2018-04-15T20:41:18.414Z,14.34
2018-04-15T20:43:45.946Z,14.30
2018-04-15T20:46:14.253Z,14.32
2018-04-15T20:48:41.915Z,14.44
2018-04-15T20:51:09.551Z,14.45
2018-04-15T20:53:37.189Z,14.51
2018-04-15T20:56:04.771Z,14.37
2018-04-15T20:58:32.540Z,14.30
2018-04-15T21:01:00.168Z,14.29
2018-04-15T21:03:27.761Z,14.36
2018-04-15T21:05:55.323Z,14.40
2018-04-15T21:08:22.905Z,14.38
2018-04-15T21:10:50.540Z,14.41
2018-04-15T21:13:18.133Z,14.39
2018-04-15T21:15:45.721Z,14.26
2018-04-15T21:18:13.314Z,14.28
2018-04-15T21:20:41.311Z,14.27
2018-04-15T21:23:08.876Z,14.15
2018-04-15T21:25:36.450Z,14.14
2018-04-15T21:28:04.096Z,14.14
2018-04-15T21:30:31.788Z,14.20
2018-04-15T21:32:59.385Z,14.16
2018-04-15T21:35:27.001Z,14.11
2018-04-15T21:37:55.177Z,14.13
2018-04-15T21:40:22.752Z,14.20
2018-04-15T21:42:50.374Z,14.26
2018-04-15T21:45:17.989Z,14.11
2018-04-15T21:47:45.698Z,14.06
2018-04-15T21:50:13.272Z,14.04
2018-04-15T21:52:40.893Z,14.05
2018-04-15T21:55:08.533Z,14.07
2018-04-15T21:57:36.115Z,14.07
2018-04-15T22:00:03.838Z,14.05
2018-04-15T22:02:31.622Z,14.04
2018-04-15T22:04:59.238Z,14.01
2018-04-15T22:07:26.824Z,13.98
2018-04-15T22:09:54.385Z,13.97
2018-04-15T22:12:21.999Z,13.96
2018-04-15T22:14:49.582Z,13.98
2018-04-15T22:19:50.945Z,14.07
2018-04-15T22:22:18.535Z,14.10
2018-04-15T22:24:46.078Z,14.10
2018-04-15T22:27:13.629Z,14.15
2018-04-15T22:29:41.259Z,14.11
2018-04-15T22:32:08.868Z,14.12
2018-04-15T22:34:36.408Z,14.19
2018-04-15T22:37:04.005Z,14.16
2018-04-15T22:39:31.570Z,14.08
2018-04-15T22:41:59.164Z,14.09
2018-04-15T22:44:26.791Z,14.05
2018-04-15T22:46:54.350Z,14.07
2018-04-15T22:49:22.286Z,14.04
2018-04-15T22:51:49.916Z,14.11
2018-04-15T22:54:17.513Z,14.10
2018-04-15T22:56:45.163Z,14.14
2018-04-15T22:59:12.734Z,14.13
2018-04-15T23:01:40.458Z,14.08
2018-04-15T23:04:08.043Z,14.06
2018-04-15T23:06:35.608Z,14.07
2018-04-15T23:09:03.193Z,14.08
2018-04-15T23:11:30.766Z,14.09
2018-04-15T23:13:58.331Z,14.07
2018-04-15T23:16:25.912Z,14.09
2018-04-15T23:18:53.473Z,14.13
2018-04-15T23:21:21.030Z,14.19
2018-04-15T23:23:48.610Z,14.13
2018-04-15T23:26:17.070Z,14.04
2018-04-15T23:28:44.682Z,14.08
2018-04-15T23:31:12.293Z,14.08
2018-04-15T23:33:39.846Z,14.08
2018-04-15T23:36:07.408Z,14.02
2018-04-15T23:38:34.971Z,14.00
2018-04-15T23:41:02.553Z,14.01
2018-04-15T23:43:30.156Z,14.03
2018-04-15T23:45:57.749Z,14.02
2018-04-15T23:48:25.307Z,14.03
2018-04-15T23:50:52.870Z,14.03
2018-04-15T23:53:20.448Z,14.03
2018-04-15T23:55:48.020Z,14.03
2018-04-15T23:58:15.618Z,13.93
